createdAt,value
2023-04-26T00:01:06.342Z,3.45
2023-04-26T00:03:33.559Z,7.45
2023-04-26T00:06:04.048Z,13.32
2023-04-26T00:08:31.263Z,12.65
2023-04-26T00:10:58.380Z,11.20
2023-04-26T00:13:25.544Z,7.22
2023-04-26T00:15:52.621Z,9.38
2023-04-26T00:18:20.041Z,11.45
2023-04-26T00:20:47.240Z,9.98
2023-04-26T00:23:14.212Z,7.82
2023-04-26T00:25:41.395Z,13.88
2023-04-26T00:28:08.448Z,12.30
2023-04-26T00:30:37.657Z,11.00
2023-04-26T00:33:05.107Z,8.55
2023-04-26T00:35:32.126Z,11.88
2023-04-26T00:37:59.133Z,10.27
2023-04-26T00:40:26.326Z,6.93
2023-04-26T00:42:58.426Z,7.68
2023-04-26T00:45:25.607Z,7.75
2023-04-26T00:47:53.406Z,13.27
2023-04-26T00:50:21.070Z,7.25
2023-04-26T00:52:48.443Z,9.20
2023-04-26T00:55:16.666Z,13.77
2023-04-26T00:57:45.953Z,13.65
2023-04-26T01:00:13.771Z,8.88
2023-04-26T01:02:41.795Z,7.68
2023-04-26T01:05:09.546Z,8.32
2023-04-26T01:07:38.749Z,10.02
2023-04-26T01:10:06.413Z,9.40
2023-04-26T01:12:33.656Z,12.60
2023-04-26T01:15:01.174Z,9.32
2023-04-26T01:17:28.357Z,7.88
2023-04-26T01:19:57.352Z,6.90
2023-04-26T01:22:24.355Z,11.35
2023-04-26T01:24:52.170Z,10.93
2023-04-26T01:27:19.272Z,14.38
2023-04-26T01:29:47.863Z,9.40
2023-04-26T01:32:14.833Z,10.85
2023-04-26T01:34:41.799Z,11.35
2023-04-26T01:37:11.008Z,20.73
2023-04-26T01:39:38.004Z,19.80
2023-04-26T01:42:05.375Z,23.05
2023-04-26T01:44:32.510Z,19.88
2023-04-26T01:47:01.638Z,16.75
2023-04-26T01:49:28.650Z,22.10
2023-04-26T01:51:56.318Z,16.15
2023-04-26T01:54:24.392Z,19.13
2023-04-26T01:56:53.254Z,17.25
2023-04-26T01:59:20.765Z,24.02
2023-04-26T02:01:47.756Z,20.55
2023-04-26T02:04:14.724Z,22.55
2023-04-26T02:06:42.464Z,22.83
2023-04-26T02:09:09.840Z,22.67
2023-04-26T02:11:40.445Z,19.65
2023-04-26T02:14:07.638Z,19.38
2023-04-26T02:16:34.761Z,21.13
2023-04-26T02:19:02.715Z,17.35
2023-04-26T02:21:30.838Z,21.50
2023-04-26T02:23:58.041Z,18.95
2023-04-26T02:26:25.031Z,20.05
2023-04-26T02:28:52.191Z,23.17
2023-04-26T02:31:21.089Z,28.38
2023-04-26T02:33:49.345Z,31.65
2023-04-26T02:36:16.331Z,44.10
2023-04-26T02:38:43.370Z,34.20
2023-04-26T02:41:10.451Z,26.42
2023-04-26T02:43:37.869Z,28.45
2023-04-26T02:46:07.807Z,30.13
2023-04-26T02:48:34.855Z,35.08
2023-04-26T02:51:01.872Z,31.77
2023-04-26T02:53:29.182Z,33.85
2023-04-26T02:55:56.141Z,40.53
2023-04-26T02:58:23.091Z,36.30
2023-04-26T03:00:50.062Z,32.53
2023-04-26T03:03:17.395Z,33.58
2023-04-26T03:05:46.403Z,44.90
2023-04-26T03:08:13.875Z,39.65
2023-04-26T03:10:40.946Z,29.10
2023-04-26T03:13:08.272Z,34.67
2023-04-26T03:15:35.785Z,30.92
2023-04-26T03:18:02.841Z,23.13
2023-04-26T03:20:30.084Z,18.85
2023-04-26T03:22:57.112Z,27.73
2023-04-26T03:25:24.018Z,18.83
2023-04-26T03:27:51.274Z,17.70
2023-04-26T03:30:18.413Z,22.60
2023-04-26T03:32:45.857Z,23.00
2023-04-26T03:35:12.982Z,20.42
2023-04-26T03:37:40.114Z,23.98
2023-04-26T03:40:11.473Z,20.23
2023-04-26T03:42:38.481Z,25.40
2023-04-26T03:45:06.341Z,18.63
2023-04-26T03:47:33.469Z,22.08
2023-04-26T03:50:00.539Z,19.52
2023-04-26T03:52:27.642Z,14.13
2023-04-26T03:54:54.864Z,21.05
2023-04-26T03:57:22.355Z,18.20
2023-04-26T03:59:50.510Z,15.15
2023-04-26T04:02:17.831Z,8.55
2023-04-26T04:04:45.102Z,9.05
2023-04-26T04:07:12.305Z,9.68
2023-04-26T04:09:39.497Z,12.88
2023-04-26T04:12:07.305Z,11.20
2023-04-26T04:14:34.408Z,10.05
2023-04-26T04:17:01.513Z,8.57
2023-04-26T04:19:29.728Z,13.98
2023-04-26T04:21:56.767Z,13.05
2023-04-26T04:24:25.853Z,17.17
2023-04-26T04:26:53.038Z,14.02
2023-04-26T04:29:20.635Z,20.67
2023-04-26T04:31:47.613Z,14.35
2023-04-26T04:34:16.582Z,16.13
2023-04-26T04:36:44.601Z,17.90
2023-04-26T04:39:16.230Z,15.75
2023-04-26T04:41:51.503Z,18.80
2023-04-26T04:44:19.556Z,13.18
2023-04-26T04:46:47.550Z,13.55
2023-04-26T04:49:15.096Z,11.43
2023-04-26T04:51:42.699Z,15.60
2023-04-26T04:54:15.318Z,17.15
2023-04-26T04:56:42.778Z,12.52
2023-04-26T04:59:12.650Z,17.30
2023-04-26T05:01:39.805Z,14.05
2023-04-26T05:04:14.094Z,15.23
2023-04-26T05:06:41.481Z,13.13
2023-04-26T05:09:09.447Z,20.92
2023-04-26T05:11:37.360Z,15.70
2023-04-26T05:14:05.676Z,20.48
2023-04-26T05:16:32.797Z,22.63
2023-04-26T05:19:01.695Z,27.58
2023-04-26T05:21:29.064Z,23.00
2023-04-26T05:23:56.060Z,39.28
2023-04-26T05:26:23.503Z,49.78
2023-04-26T05:28:50.456Z,64.47
2023-04-26T05:31:46.709Z,61.92
2023-04-26T05:34:24.057Z,73.75
2023-04-26T05:36:55.740Z,71.05
2023-04-26T05:39:22.870Z,71.03
2023-04-26T05:41:50.093Z,75.78
2023-04-26T05:44:17.309Z,74.93
2023-04-26T05:46:46.968Z,87.63
2023-04-26T05:49:14.049Z,95.38
2023-04-26T05:51:41.252Z,97.82
2023-04-26T05:54:08.290Z,81.70
2023-04-26T05:56:35.327Z,66.03
2023-04-26T05:59:02.470Z,73.03
2023-04-26T06:01:31.126Z,69.75
2023-04-26T06:04:00.852Z,76.07
2023-04-26T06:06:34.137Z,64.03
2023-04-26T06:09:01.615Z,55.55
2023-04-26T06:11:29.408Z,50.78
2023-04-26T06:13:56.400Z,62.78
2023-04-26T06:16:25.100Z,59.95
2023-04-26T06:18:52.385Z,67.30
2023-04-26T06:21:19.419Z,67.53
2023-04-26T06:23:46.925Z,102.45
2023-04-26T06:26:13.866Z,93.95
2023-04-26T06:28:42.294Z,125.55
2023-04-26T06:31:09.857Z,133.80
2023-04-26T06:33:37.125Z,143.43
2023-04-26T06:36:04.479Z,142.48
2023-04-26T06:38:31.466Z,135.88
2023-04-26T06:40:59.354Z,126.97
2023-04-26T06:43:26.569Z,117.13
2023-04-26T06:46:00.957Z,118.97
2023-04-26T06:48:28.101Z,114.43
2023-04-26T06:50:55.153Z,136.23
2023-04-26T06:53:23.135Z,124.20
2023-04-26T06:55:50.499Z,113.47
2023-04-26T06:58:17.476Z,122.95
2023-04-26T07:00:44.670Z,125.40
2023-04-26T07:03:11.881Z,122.00
2023-04-26T07:05:40.094Z,116.03
2023-04-26T07:08:07.294Z,100.30
2023-04-26T07:10:34.429Z,100.60
2023-04-26T07:13:01.654Z,96.78
2023-04-26T07:15:28.636Z,97.60
2023-04-26T07:17:55.709Z,84.47
2023-04-26T07:20:24.301Z,79.65
2023-04-26T07:22:51.721Z,81.10
2023-04-26T07:25:18.878Z,73.53
2023-04-26T07:27:46.131Z,40.20
2023-04-26T07:30:13.506Z,53.72
2023-04-26T07:32:40.655Z,41.78
2023-04-26T07:35:08.786Z,32.65
2023-04-26T07:37:35.851Z,24.08
2023-04-26T07:40:02.945Z,19.83
2023-04-26T07:42:29.890Z,18.77
2023-04-26T07:44:56.876Z,17.65
2023-04-26T07:47:24.444Z,13.63
2023-04-26T07:49:54.852Z,11.02
2023-04-26T07:52:21.881Z,11.45
2023-04-26T07:54:48.903Z,14.45
2023-04-26T07:57:16.582Z,17.55
2023-04-26T07:59:43.549Z,14.70
2023-04-26T08:02:10.917Z,10.25
2023-04-26T08:04:38.160Z,10.25
2023-04-26T08:07:05.413Z,10.15
2023-04-26T08:09:32.479Z,7.72
2023-04-26T08:11:59.502Z,7.97
2023-04-26T08:14:26.730Z,13.98
2023-04-26T08:16:53.893Z,6.95
2023-04-26T08:19:21.559Z,6.35
2023-04-26T08:21:48.628Z,7.60
2023-04-26T08:24:15.620Z,8.65
2023-04-26T08:26:42.610Z,9.27
2023-04-26T08:29:09.658Z,14.35
2023-04-26T08:31:36.669Z,8.13
2023-04-26T08:34:03.822Z,10.60
2023-04-26T08:36:32.599Z,10.52
2023-04-26T08:38:59.962Z,11.52
2023-04-26T08:41:27.825Z,10.43
2023-04-26T08:43:58.354Z,11.50
2023-04-26T08:46:27.935Z,19.17
2023-04-26T08:49:22.949Z,12.52
2023-04-26T08:51:51.626Z,13.60
2023-04-26T08:54:20.273Z,15.10
2023-04-26T08:56:47.343Z,15.15
2023-04-26T08:59:15.226Z,12.05
2023-04-26T09:01:44.657Z,14.02
2023-04-26T09:04:12.609Z,14.45
2023-04-26T09:06:39.832Z,13.90
2023-04-26T09:09:09.400Z,14.13
2023-04-26T09:12:11.825Z,16.67
2023-04-26T09:14:39.264Z,14.75
2023-04-26T09:17:06.407Z,14.27
2023-04-26T09:19:42.815Z,12.50
2023-04-26T09:22:10.009Z,15.43
2023-04-26T09:24:48.388Z,16.52
2023-04-26T09:27:16.615Z,18.38
2023-04-26T09:30:00.049Z,15.80
2023-04-26T09:32:27.681Z,15.13
2023-04-26T09:34:54.651Z,14.80
2023-04-26T09:37:21.631Z,14.18
2023-04-26T09:39:48.655Z,16.00
2023-04-26T09:42:19.085Z,16.05
2023-04-26T09:44:46.342Z,17.48
2023-04-26T09:47:13.561Z,15.15
2023-04-26T09:49:52.058Z,19.10
2023-04-26T09:52:20.633Z,15.63
2023-04-26T09:54:48.839Z,21.95
2023-04-26T09:57:17.467Z,15.57
2023-04-26T09:59:49.171Z,17.55
2023-04-26T10:02:25.022Z,16.02
2023-04-26T10:04:54.423Z,16.20
2023-04-26T10:07:26.340Z,19.95
2023-04-26T10:09:53.937Z,18.13
2023-04-26T10:12:21.321Z,17.30
2023-04-26T10:14:49.045Z,15.35
2023-04-26T10:17:16.555Z,15.70
2023-04-26T10:19:44.694Z,14.80
2023-04-26T10:22:22.393Z,22.17
2023-04-26T10:24:50.811Z,18.60
2023-04-26T10:27:37.723Z,15.07
2023-04-26T10:30:10.337Z,17.92
2023-04-26T10:32:57.770Z,15.05
2023-04-26T10:35:30.994Z,17.80
2023-04-26T10:38:00.957Z,12.48
2023-04-26T10:40:31.091Z,15.50
2023-04-26T10:43:15.920Z,13.68
2023-04-26T10:45:44.929Z,13.00
2023-04-26T10:48:27.510Z,18.10
2023-04-26T10:51:08.424Z,14.32
2023-04-26T10:53:47.699Z,13.85
2023-04-26T10:56:24.049Z,12.15
2023-04-26T11:01:42.758Z,14.18
2023-04-26T11:04:11.895Z,13.68
2023-04-26T11:06:55.779Z,10.32
2023-04-26T11:09:36.361Z,12.38
2023-04-26T11:12:14.474Z,11.95
2023-04-26T11:14:42.520Z,12.73
2023-04-26T11:17:10.640Z,12.70
2023-04-26T11:19:37.694Z,13.30
2023-04-26T11:22:08.573Z,12.30
2023-04-26T11:24:39.404Z,13.77
2023-04-26T11:27:12.073Z,13.20
2023-04-26T11:29:39.559Z,13.90
2023-04-26T11:32:07.211Z,16.73
2023-04-26T11:34:35.389Z,14.20
2023-04-26T11:37:05.059Z,14.55
2023-04-26T11:39:33.530Z,5.78
2023-04-26T11:42:13.121Z,2.17
2023-04-26T11:44:41.273Z,4.82
2023-04-26T11:47:10.200Z,3.72
2023-04-26T11:49:38.881Z,5.80
2023-04-26T11:52:06.773Z,3.58
2023-04-26T11:54:38.137Z,2.63
2023-04-26T11:57:17.346Z,2.75
2023-04-26T11:59:46.127Z,1.85
2023-04-26T12:02:13.442Z,3.83
2023-04-26T12:04:41.409Z,3.10
2023-04-26T12:07:09.819Z,2.15
2023-04-26T12:09:42.255Z,2.95
2023-04-26T12:12:09.266Z,3.20
2023-04-26T12:14:39.674Z,2.55
2023-04-26T12:17:07.734Z,3.30
2023-04-26T12:19:36.999Z,7.80
2023-04-26T12:22:06.011Z,7.63
2023-04-26T12:24:39.277Z,16.10
2023-04-26T12:27:08.009Z,16.80
2023-04-26T12:29:35.814Z,12.45
2023-04-26T12:32:04.284Z,22.35
2023-04-26T12:34:31.495Z,13.40
2023-04-26T12:36:58.600Z,15.38
2023-04-26T12:39:25.751Z,18.38
2023-04-26T12:41:52.829Z,19.95
2023-04-26T12:44:21.866Z,21.38
2023-04-26T12:46:50.087Z,12.98
2023-04-26T12:49:17.210Z,15.68
2023-04-26T12:51:44.215Z,12.23
2023-04-26T12:54:11.282Z,14.38
2023-04-26T12:56:43.860Z,12.15
2023-04-26T12:59:11.196Z,15.23
2023-04-26T13:01:38.309Z,12.48
2023-04-26T13:04:06.289Z,11.32
2023-04-26T13:06:34.132Z,14.82
2023-04-26T13:09:01.926Z,11.95
2023-04-26T13:11:31.150Z,14.73
2023-04-26T13:13:58.473Z,12.32
2023-04-26T13:16:26.285Z,10.43
2023-04-26T13:18:53.396Z,14.40
2023-04-26T13:21:20.308Z,12.35
2023-04-26T13:23:47.509Z,7.30
2023-04-26T13:26:15.221Z,12.23
2023-04-26T13:28:42.287Z,15.43
2023-04-26T13:31:09.413Z,11.20
2023-04-26T13:33:36.654Z,10.68
2023-04-26T13:36:03.766Z,11.15
2023-04-26T13:38:32.822Z,11.10
2023-04-26T13:41:00.232Z,10.80
2023-04-26T13:43:27.274Z,11.35
2023-04-26T13:45:54.425Z,10.45
2023-04-26T13:48:21.653Z,14.75
2023-04-26T13:50:48.644Z,9.52
2023-04-26T13:53:15.582Z,10.23
2023-04-26T13:55:42.546Z,6.00
2023-04-26T13:58:09.501Z,9.18
2023-04-26T14:00:36.964Z,16.70
2023-04-26T14:03:04.100Z,6.95
2023-04-26T14:05:31.340Z,12.02
2023-04-26T14:07:58.899Z,9.65
2023-04-26T14:10:26.336Z,10.73
2023-04-26T14:12:53.737Z,12.07
2023-04-26T14:15:21.442Z,9.85
2023-04-26T14:17:48.908Z,7.18
2023-04-26T14:20:16.141Z,6.78
2023-04-26T14:22:43.171Z,6.00
2023-04-26T14:25:10.239Z,7.18
2023-04-26T14:27:39.608Z,6.55
2023-04-26T14:30:07.987Z,8.23
2023-04-26T14:32:35.259Z,8.57
2023-04-26T14:35:02.307Z,6.38
2023-04-26T14:37:29.403Z,7.90
2023-04-26T14:39:56.340Z,8.70
2023-04-26T14:42:23.355Z,6.78
2023-04-26T14:44:50.370Z,6.57
2023-04-26T14:47:17.431Z,6.50
2023-04-26T14:49:44.447Z,7.63
2023-04-26T14:52:11.453Z,9.25
2023-04-26T14:54:39.568Z,8.02
2023-04-26T14:57:06.705Z,7.15
2023-04-26T14:59:33.903Z,10.10
2023-04-26T15:02:01.170Z,9.68
2023-04-26T15:04:28.945Z,8.52
2023-04-26T15:06:56.991Z,9.48
2023-04-26T15:09:24.116Z,8.95
2023-04-26T15:11:51.053Z,10.02
2023-04-26T15:14:17.994Z,9.02
2023-04-26T15:16:45.398Z,8.13
2023-04-26T15:19:12.421Z,9.02
2023-04-26T15:21:39.641Z,7.28
2023-04-26T15:24:07.870Z,6.75
2023-04-26T15:26:34.871Z,10.20
2023-04-26T15:29:02.108Z,12.30
2023-04-26T15:31:29.169Z,10.77
2023-04-26T15:33:58.844Z,14.18
2023-04-26T15:36:26.203Z,7.68
2023-04-26T15:38:53.338Z,14.60
2023-04-26T15:41:20.473Z,11.48
2023-04-26T15:43:47.426Z,13.32
2023-04-26T15:46:15.253Z,10.57
2023-04-26T15:48:42.419Z,7.97
2023-04-26T15:51:09.424Z,8.90
2023-04-26T15:53:39.263Z,9.55
2023-04-26T15:56:17.235Z,8.57
2023-04-26T15:58:45.712Z,9.23
2023-04-26T16:01:13.262Z,11.07
2023-04-26T16:03:43.369Z,11.13
2023-04-26T16:06:12.836Z,9.80
2023-04-26T16:08:40.891Z,8.90
2023-04-26T16:11:08.094Z,9.32
2023-04-26T16:13:35.135Z,11.60
2023-04-26T16:16:02.286Z,11.60
2023-04-26T16:18:29.388Z,11.52
2023-04-26T16:21:04.632Z,11.55
2023-04-26T16:25:58.982Z,13.65
2023-04-26T16:28:26.214Z,13.18
2023-04-26T16:30:53.447Z,12.57
2023-04-26T16:33:22.882Z,11.60
2023-04-26T16:35:52.813Z,10.73
2023-04-26T16:38:20.226Z,10.85
2023-04-26T16:40:58.141Z,17.63
2023-04-26T16:43:30.337Z,15.20
2023-04-26T16:46:08.432Z,17.77
2023-04-26T16:48:37.650Z,21.00
2023-04-26T16:51:07.580Z,11.93
2023-04-26T16:53:36.110Z,13.60
2023-04-26T16:56:04.231Z,13.93
2023-04-26T16:58:31.458Z,11.73
2023-04-26T17:00:58.548Z,14.27
2023-04-26T17:03:26.092Z,16.42
2023-04-26T17:05:53.479Z,14.15
2023-04-26T17:08:20.717Z,16.13
2023-04-26T17:10:48.485Z,12.35
2023-04-26T17:13:15.967Z,12.60
2023-04-26T17:15:43.531Z,13.45
2023-04-26T17:18:11.099Z,18.23
2023-04-26T17:20:38.205Z,14.27
2023-04-26T17:23:05.441Z,12.88
2023-04-26T17:25:32.741Z,10.27
2023-04-26T17:27:59.825Z,11.73
2023-04-26T17:30:26.846Z,11.75
2023-04-26T17:32:53.968Z,12.05
2023-04-26T17:35:21.307Z,12.48
2023-04-26T17:37:50.561Z,13.57
2023-04-26T17:40:18.665Z,12.07
2023-04-26T17:42:46.719Z,11.75
2023-04-26T17:45:14.611Z,14.80
2023-04-26T17:47:43.116Z,14.90
2023-04-26T17:50:11.015Z,13.73
2023-04-26T17:52:38.446Z,14.35
2023-04-26T17:55:08.321Z,14.27
2023-04-26T17:57:36.415Z,13.73
2023-04-26T18:00:04.226Z,20.55
2023-04-26T18:02:36.394Z,13.27
2023-04-26T18:05:05.141Z,12.90
2023-04-26T18:07:32.241Z,19.48
2023-04-26T18:09:59.229Z,13.80
2023-04-26T18:12:26.291Z,15.23
2023-04-26T18:14:53.371Z,13.07
2023-04-26T18:17:20.499Z,11.68
2023-04-26T18:19:47.539Z,13.38
2023-04-26T18:22:14.586Z,16.98
2023-04-26T18:24:41.623Z,14.18
2023-04-26T18:27:11.270Z,14.00
2023-04-26T18:29:38.409Z,13.85
2023-04-26T18:32:05.622Z,16.52
2023-04-26T18:34:32.671Z,20.73
2023-04-26T18:36:59.664Z,12.20
2023-04-26T18:39:26.620Z,19.50
2023-04-26T18:41:53.891Z,11.25
2023-04-26T18:44:20.978Z,15.48
2023-04-26T18:46:48.189Z,19.80
2023-04-26T18:49:15.366Z,14.07
2023-04-26T18:51:42.322Z,13.32
2023-04-26T18:54:09.304Z,14.07
2023-04-26T18:56:37.646Z,14.50
2023-04-26T18:59:04.692Z,24.85
2023-04-26T19:01:31.832Z,15.23
2023-04-26T19:03:59.066Z,16.58
2023-04-26T19:06:26.305Z,21.90
2023-04-26T19:08:53.310Z,16.75
2023-04-26T19:11:20.262Z,12.52
2023-04-26T19:13:47.242Z,11.13
2023-04-26T19:16:15.356Z,14.30
2023-04-26T19:18:44.343Z,12.68
2023-04-26T19:21:11.579Z,14.57
2023-04-26T19:23:38.612Z,11.65
2023-04-26T19:26:12.573Z,11.55
2023-04-26T19:28:40.906Z,12.20
2023-04-26T19:31:08.132Z,11.70
2023-04-26T19:33:35.224Z,11.02
2023-04-26T19:36:02.310Z,11.57
2023-04-26T19:38:29.430Z,12.32
2023-04-26T19:40:56.423Z,9.68
2023-04-26T19:43:23.467Z,11.80
2023-04-26T19:45:50.470Z,10.63
2023-04-26T19:48:17.457Z,12.25
2023-04-26T19:50:46.373Z,13.75
2023-04-26T19:53:15.444Z,13.18
2023-04-26T19:55:42.697Z,12.85
2023-04-26T19:58:12.924Z,9.32
2023-04-26T20:00:40.655Z,12.95
2023-04-26T20:03:08.004Z,8.32
2023-04-26T20:05:35.465Z,14.60
2023-04-26T20:08:02.758Z,9.63
2023-04-26T20:10:34.212Z,13.75
2023-04-26T20:13:01.642Z,12.13
2023-04-26T20:15:30.470Z,12.38
2023-04-26T20:17:58.838Z,9.35
2023-04-26T20:20:25.908Z,8.50
2023-04-26T20:22:52.881Z,9.43
2023-04-26T20:25:20.177Z,9.38
2023-04-26T20:27:47.873Z,7.43
2023-04-26T20:30:15.852Z,10.25
2023-04-26T20:32:43.545Z,11.65
2023-04-26T20:35:12.880Z,7.22
2023-04-26T20:37:40.093Z,7.80
2023-04-26T20:40:08.076Z,8.35
2023-04-26T20:42:35.472Z,7.22
2023-04-26T20:45:03.935Z,9.80
2023-04-26T20:47:31.563Z,7.85
2023-04-26T20:49:58.709Z,6.93
2023-04-26T20:52:25.740Z,8.07
2023-04-26T20:54:52.731Z,6.20
2023-04-26T20:57:19.685Z,10.50
2023-04-26T20:59:46.658Z,8.05
2023-04-26T21:02:13.866Z,7.22
2023-04-26T21:04:42.787Z,10.73
2023-04-26T21:07:10.671Z,10.27
2023-04-26T21:09:38.380Z,10.57
2023-04-26T21:12:05.756Z,7.78
2023-04-26T21:14:32.812Z,7.30
2023-04-26T21:17:01.531Z,7.45
2023-04-26T21:19:28.730Z,8.55
2023-04-26T21:21:55.818Z,7.03
2023-04-26T21:24:22.909Z,7.72
2023-04-26T21:26:49.968Z,7.05
2023-04-26T21:29:17.222Z,10.70
2023-04-26T21:31:44.366Z,7.03
2023-04-26T21:34:11.446Z,9.10
2023-04-26T21:36:38.424Z,5.07
2023-04-26T21:39:05.489Z,3.75
2023-04-26T21:41:32.514Z,4.82
2023-04-26T21:43:59.460Z,3.97
2023-04-26T21:46:26.998Z,8.85
2023-04-26T21:48:54.084Z,9.45
2023-04-26T21:51:21.135Z,6.35
2023-04-26T21:53:48.105Z,5.78
2023-04-26T21:56:15.308Z,8.07
2023-04-26T21:58:42.682Z,4.72
2023-04-26T22:01:11.480Z,2.90
2023-04-26T22:03:39.173Z,3.00
2023-04-26T22:06:07.366Z,2.05
2023-04-26T22:08:34.990Z,1.70
2023-04-26T22:11:02.798Z,2.17
2023-04-26T22:13:30.895Z,1.92
2023-04-26T22:15:57.950Z,1.70
2023-04-26T22:18:26.060Z,2.42
2023-04-26T22:20:53.704Z,1.50
2023-04-26T22:23:21.103Z,1.60
2023-04-26T22:25:48.107Z,2.10
2023-04-26T22:28:15.758Z,2.85
2023-04-26T22:30:42.713Z,1.38
2023-04-26T22:33:11.255Z,2.53
2023-04-26T22:35:38.440Z,1.60
2023-04-26T22:38:05.633Z,2.20
2023-04-26T22:40:32.785Z,6.00
2023-04-26T22:42:59.747Z,2.65
2023-04-26T22:45:27.110Z,3.88
2023-04-26T22:47:54.322Z,6.80
2023-04-26T22:50:21.674Z,1.65
2023-04-26T22:52:49.903Z,1.90
2023-04-26T22:55:17.604Z,2.35
2023-04-26T22:57:44.917Z,2.35
2023-04-26T23:00:12.821Z,1.90
2023-04-26T23:02:40.032Z,9.88
2023-04-26T23:05:10.121Z,3.38
2023-04-26T23:07:38.410Z,4.05
2023-04-26T23:10:06.811Z,1.80
2023-04-26T23:12:33.810Z,3.90
2023-04-26T23:15:00.864Z,2.13
2023-04-26T23:17:28.126Z,1.92
2023-04-26T23:19:55.176Z,1.55
2023-04-26T23:22:22.186Z,1.95
2023-04-26T23:24:49.210Z,4.82
2023-04-26T23:27:16.152Z,1.13
2023-04-26T23:29:43.159Z,1.15
2023-04-26T23:32:10.183Z,1.67
2023-04-26T23:34:37.167Z,1.50
2023-04-26T23:37:07.040Z,1.13
2023-04-26T23:39:35.741Z,1.02
2023-04-26T23:42:02.824Z,1.27
2023-04-26T23:44:29.850Z,2.85
2023-04-26T23:46:56.913Z,1.95
2023-04-26T23:49:24.581Z,0.90
2023-04-26T23:51:51.674Z,3.03
2023-04-26T23:54:18.736Z,1.52
2023-04-26T23:56:45.777Z,3.95
2023-04-26T23:59:13.247Z,1.42
